Time;durP1;ratioP1;P1;durP2;ratioP2;P2;SDS_P1;SDS_P2;PMS_P1;PMS_P2;Temp;Humidity;BMP_temperature;BMP_pressure;BME280_temperature;BME280_humidity;BME280_pressure;Samples;Min_cycle;Max_cycle;Signal;HPM_P1;HPM_P2
2023/03/20 00:01:14;;;;;;;0.60;0.60;;;;;;;;;;4981442;28;89117;-62
2023/03/20 00:03:42;;;;;;;0.53;0.40;;;;;;;;;;4982120;28;89146;-62
2023/03/20 00:06:14;;;;;;;0.67;0.67;;;;;;;;;;4981598;28;88010;-61
2023/03/20 00:08:44;;;;;;;1.27;0.70;;;;;;;;;;4982378;28;86930;-62
2023/03/20 00:11:16;;;;;;;0.60;0.57;;;;;;;;;;4982365;28;89213;-62
2023/03/20 00:13:44;;;;;;;1.63;0.80;;;;;;;;;;4980518;28;87984;-62
2023/03/20 00:16:14;;;;;;;0.40;0.40;;;;;;;;;;4981761;28;87199;-61
2023/03/20 00:18:43;;;;;;;0.90;0.63;;;;;;;;;;4970846;28;87171;-61
2023/03/20 00:21:13;;;;;;;0.60;0.60;;;;;;;;;;5000412;28;87952;-61
2023/03/20 00:23:42;;;;;;;0.60;0.60;;;;;;;;;;4985911;28;91089;-62
2023/03/20 00:26:10;;;;;;;0.73;0.50;;;;;;;;;;4982098;28;87018;-62
2023/03/20 00:28:39;;;;;;;0.70;0.50;;;;;;;;;;4981791;28;87039;-62
2023/03/20 00:31:14;;;;;;;0.70;0.47;;;;;;;;;;4980889;28;90096;-62
2023/03/20 00:33:42;;;;;;;0.40;0.40;;;;;;;;;;4981874;28;89649;-61
2023/03/20 00:36:13;;;;;;;0.50;0.50;;;;;;;;;;4982270;28;87099;-61
2023/03/20 00:38:42;;;;;;;0.73;0.73;;;;;;;;;;4981892;28;87027;-62
2023/03/20 00:41:16;;;;;;;2.07;0.70;;;;;;;;;;4981250;28;89155;-61
2023/03/20 00:43:44;;;;;;;0.60;0.50;;;;;;;;;;4978831;28;88571;-61
2023/03/20 00:46:14;;;;;;;0.60;0.50;;;;;;;;;;4976192;28;87157;-61
2023/03/20 00:48:42;;;;;;;0.50;0.50;;;;;;;;;;4982261;28;86336;-62
2023/03/20 00:51:10;;;;;;;0.53;0.50;;;;;;;;;;4981188;28;89219;-62
2023/03/20 00:53:39;;;;;;;2.00;0.60;;;;;;;;;;4981290;28;88815;-61
2023/03/20 00:56:07;;;;;;;1.70;0.53;;;;;;;;;;4980852;28;87970;-61
2023/03/20 00:58:36;;;;;;;0.63;0.50;;;;;;;;;;4975847;28;87047;-62
2023/03/20 01:01:04;;;;;;;0.40;0.40;;;;;;;;;;4983875;28;89118;-62
2023/03/20 01:03:34;;;;;;;1.00;0.70;;;;;;;;;;4984600;28;90179;-61
2023/03/20 01:06:02;;;;;;;1.37;1.00;;;;;;;;;;4984698;28;87053;-61
2023/03/20 01:08:31;;;;;;;1.73;0.73;;;;;;;;;;4967625;28;87053;-62
2023/03/20 01:10:59;;;;;;;0.60;0.60;;;;;;;;;;4984235;28;89030;-61
2023/03/20 01:13:28;;;;;;;1.03;0.57;;;;;;;;;;4984911;28;88742;-61
2023/03/20 01:15:58;;;;;;;0.60;0.60;;;;;;;;;;4984585;28;87045;-62
2023/03/20 01:18:26;;;;;;;0.90;0.90;;;;;;;;;;4984414;28;87042;-61
2023/03/20 01:20:56;;;;;;;0.87;0.50;;;;;;;;;;4983781;28;89223;-61
2023/03/20 01:23:25;;;;;;;1.43;0.43;;;;;;;;;;4984749;28;89764;-62
2023/03/20 01:25:54;;;;;;;0.80;0.70;;;;;;;;;;4985047;28;87063;-61
2023/03/20 01:28:23;;;;;;;1.27;0.60;;;;;;;;;;4985148;28;87047;-62
2023/03/20 01:30:56;;;;;;;1.33;0.60;;;;;;;;;;4967137;28;89194;-62
2023/03/20 01:33:25;;;;;;;0.73;0.50;;;;;;;;;;4984071;28;87741;-61
2023/03/20 01:35:53;;;;;;;1.40;0.87;;;;;;;;;;4984340;28;87084;-62
2023/03/20 01:38:24;;;;;;;0.20;0.20;;;;;;;;;;4984879;28;86326;-62
2023/03/20 01:40:53;;;;;;;0.70;0.70;;;;;;;;;;4982896;28;87936;-62
2023/03/20 01:43:22;;;;;;;0.67;0.50;;;;;;;;;;4984090;28;87782;-61
2023/03/20 01:45:56;;;;;;;0.80;0.70;;;;;;;;;;4984294;28;87956;-61
2023/03/20 01:48:25;;;;;;;0.30;0.30;;;;;;;;;;4984582;28;87107;-61
2023/03/20 01:50:53;;;;;;;0.80;0.77;;;;;;;;;;4983735;28;87901;-61
2023/03/20 01:53:24;;;;;;;0.47;0.47;;;;;;;;;;4983967;28;90600;-61
2023/03/20 01:55:54;;;;;;;0.40;0.40;;;;;;;;;;4983635;28;87107;-62
2023/03/20 01:58:22;;;;;;;0.33;0.33;;;;;;;;;;4983960;28;86954;-61
2023/03/20 02:00:51;;;;;;;0.50;0.50;;;;;;;;;;4983160;28;89037;-62
2023/03/20 02:03:19;;;;;;;0.33;0.33;;;;;;;;;;4984540;28;88881;-61
2023/03/20 02:05:48;;;;;;;0.50;0.50;;;;;;;;;;4983914;28;87175;-62
2023/03/20 02:08:22;;;;;;;0.47;0.47;;;;;;;;;;4983719;28;87036;-62
2023/03/20 02:10:51;;;;;;;0.60;0.60;;;;;;;;;;4965540;28;90080;-61
2023/03/20 02:13:20;;;;;;;2.33;1.20;;;;;;;;;;4983883;28;88286;-61
2023/03/20 02:16:04;;;;;;;0.30;0.30;;;;;;;;;;4983686;28;87024;-62
2023/03/20 02:18:32;;;;;;;1.50;0.50;;;;;;;;;;4983445;28;87086;-62
2023/03/20 02:21:10;;;;;;;0.77;0.47;;;;;;;;;;4982911;28;89459;-61
2023/03/20 02:23:46;;;;;;;0.77;0.77;;;;;;;;;;4984022;28;88932;-62
2023/03/20 02:26:43;;;;;;;1.10;0.60;;;;;;;;;;4983343;28;87110;-61
2023/03/20 02:29:30;;;;;;;1.80;0.70;;;;;;;;;;4938838;28;86499;-62
2023/03/20 02:32:09;;;;;;;0.30;0.30;;;;;;;;;;4983694;28;88038;-62
2023/03/20 02:34:49;;;;;;;0.63;0.63;;;;;;;;;;4983448;28;88925;-62
2023/03/20 02:37:36;;;;;;;0.50;0.50;;;;;;;;;;4982460;28;87983;-62
2023/03/20 02:40:11;;;;;;;0.50;0.50;;;;;;;;;;4975957;28;87095;-62
2023/03/20 02:42:40;;;;;;;1.43;0.83;;;;;;;;;;4978740;28;89226;-61
2023/03/20 02:45:11;;;;;;;0.33;0.30;;;;;;;;;;4981347;28;88440;-62
2023/03/20 02:47:42;;;;;;;0.57;0.50;;;;;;;;;;4982909;28;87127;-61
2023/03/20 02:50:13;;;;;;;0.60;0.60;;;;;;;;;;4976523;28;86962;-61
2023/03/20 02:52:43;;;;;;;1.17;0.70;;;;;;;;;;4978404;28;89015;-61
2023/03/20 02:55:16;;;;;;;4.00;0.63;;;;;;;;;;4979346;28;88929;-61
2023/03/20 02:57:46;;;;;;;0.57;0.40;;;;;;;;;;4977047;28;87121;-62
2023/03/20 03:00:16;;;;;;;4.50;1.00;;;;;;;;;;4976659;28;88586;-61
2023/03/20 03:02:45;;;;;;;1.07;0.63;;;;;;;;;;4982123;28;89216;-61
2023/03/20 03:05:15;;;;;;;1.73;0.70;;;;;;;;;;4978602;28;88479;-62
2023/03/20 03:07:45;;;;;;;0.33;0.30;;;;;;;;;;4979978;28;87465;-61
2023/03/20 03:10:16;;;;;;;0.83;0.80;;;;;;;;;;4979492;28;87564;-61
2023/03/20 03:12:45;;;;;;;0.50;0.50;;;;;;;;;;4979995;28;89125;-61
2023/03/20 03:15:15;;;;;;;1.03;0.57;;;;;;;;;;4980628;28;89023;-61
2023/03/20 03:17:43;;;;;;;1.00;0.57;;;;;;;;;;4981351;28;87047;-61
2023/03/20 03:20:15;;;;;;;0.53;0.53;;;;;;;;;;4980833;28;87156;-61
2023/03/20 03:22:44;;;;;;;0.30;0.30;;;;;;;;;;4977246;28;89186;-61
2023/03/20 03:25:13;;;;;;;0.80;0.70;;;;;;;;;;4980934;28;88597;-61
2023/03/20 03:27:43;;;;;;;0.60;0.50;;;;;;;;;;4981043;28;88053;-61
2023/03/20 03:30:13;;;;;;;0.60;0.60;;;;;;;;;;4980671;28;87119;-61
2023/03/20 03:32:43;;;;;;;1.47;0.70;;;;;;;;;;4980121;28;89100;-61
2023/03/20 03:35:14;;;;;;;1.30;0.53;;;;;;;;;;4975881;28;87746;-61
2023/03/20 03:37:44;;;;;;;1.00;0.40;;;;;;;;;;4976642;28;88082;-61
2023/03/20 03:40:17;;;;;;;0.70;0.70;;;;;;;;;;4980397;28;87032;-62
2023/03/20 03:42:49;;;;;;;0.77;0.53;;;;;;;;;;4979823;28;88857;-61
2023/03/20 03:45:17;;;;;;;0.60;0.60;;;;;;;;;;4979880;28;87781;-61
2023/03/20 03:47:46;;;;;;;0.30;0.30;;;;;;;;;;4980950;28;87107;-61
2023/03/20 03:50:16;;;;;;;0.67;0.67;;;;;;;;;;4980659;28;87023;-61
2023/03/20 03:52:44;;;;;;;2.23;0.50;;;;;;;;;;4980050;28;89517;-61
2023/03/20 03:55:13;;;;;;;0.20;0.20;;;;;;;;;;4979904;28;89841;-62
2023/03/20 03:57:42;;;;;;;0.93;0.70;;;;;;;;;;4978995;28;87266;-61
2023/03/20 04:00:12;;;;;;;0.63;0.60;;;;;;;;;;4980473;28;86984;-61
2023/03/20 04:02:42;;;;;;;0.30;0.30;;;;;;;;;;4980709;28;89124;-61
2023/03/20 04:05:10;;;;;;;0.50;0.50;;;;;;;;;;4980412;28;87784;-61
2023/03/20 04:07:39;;;;;;;0.60;0.40;;;;;;;;;;4980874;28;87119;-62
2023/03/20 04:10:08;;;;;;;0.43;0.30;;;;;;;;;;4974215;28;87431;-61
2023/03/20 04:12:36;;;;;;;1.63;0.60;;;;;;;;;;4976677;28;88082;-61
2023/03/20 04:15:05;;;;;;;0.40;0.40;;;;;;;;;;4980158;28;87704;-62
2023/03/20 04:17:37;;;;;;;1.03;0.80;;;;;;;;;;4979307;28;88041;-61
2023/03/20 04:20:06;;;;;;;0.80;0.77;;;;;;;;;;4976734;28;87293;-62
2023/03/20 04:22:34;;;;;;;0.70;0.70;;;;;;;;;;4980311;28;88187;-61
2023/03/20 04:25:03;;;;;;;0.40;0.40;;;;;;;;;;4979642;28;87087;-61
2023/03/20 04:27:31;;;;;;;0.60;0.60;;;;;;;;;;4979934;28;88205;-62
2023/03/20 04:29:59;;;;;;;0.60;0.53;;;;;;;;;;4979446;28;87090;-62
2023/03/20 04:32:28;;;;;;;2.23;0.80;;;;;;;;;;4979490;28;88562;-62
2023/03/20 04:34:57;;;;;;;1.53;0.70;;;;;;;;;;4980148;28;88021;-62
2023/03/20 04:37:26;;;;;;;0.60;0.60;;;;;;;;;;4979617;28;86878;-61
2023/03/20 04:39:54;;;;;;;1.23;0.53;;;;;;;;;;4979580;28;87108;-62
2023/03/20 04:42:22;;;;;;;2.93;0.90;;;;;;;;;;4977306;28;90113;-62
2023/03/20 04:44:51;;;;;;;0.50;0.50;;;;;;;;;;4980276;28;89800;-61
2023/03/20 04:47:19;;;;;;;0.50;0.50;;;;;;;;;;4980637;28;87045;-62
2023/03/20 04:49:47;;;;;;;0.40;0.40;;;;;;;;;;4979305;28;87026;-61
2023/03/20 04:52:17;;;;;;;2.63;1.00;;;;;;;;;;4979451;28;87639;-62
2023/03/20 04:54:45;;;;;;;0.50;0.50;;;;;;;;;;4976372;28;88429;-62
2023/03/20 04:57:15;;;;;;;0.50;0.50;;;;;;;;;;4980255;28;87082;-62
2023/03/20 04:59:43;;;;;;;0.40;0.40;;;;;;;;;;4976808;28;86262;-61
2023/03/20 05:02:13;;;;;;;0.43;0.43;;;;;;;;;;4979611;28;89205;-62
2023/03/20 05:04:42;;;;;;;0.77;0.60;;;;;;;;;;4979730;28;87112;-62
2023/03/20 05:07:11;;;;;;;0.60;0.40;;;;;;;;;;4979268;28;88122;-61
2023/03/20 05:09:40;;;;;;;1.07;0.70;;;;;;;;;;4979970;28;86732;-62
2023/03/20 05:12:09;;;;;;;0.50;0.50;;;;;;;;;;4980425;28;89208;-61
2023/03/20 05:14:37;;;;;;;0.57;0.57;;;;;;;;;;4979654;28;88508;-62
2023/03/20 05:17:06;;;;;;;0.60;0.60;;;;;;;;;;4975844;28;88394;-62
2023/03/20 05:19:34;;;;;;;0.60;0.60;;;;;;;;;;4976410;28;87019;-62
2023/03/20 05:22:02;;;;;;;1.03;0.60;;;;;;;;;;4979936;28;88110;-62
2023/03/20 05:24:31;;;;;;;0.93;0.40;;;;;;;;;;4962521;28;89024;-61
2023/03/20 05:27:02;;;;;;;0.53;0.53;;;;;;;;;;4980062;28;87514;-62
2023/03/20 05:29:30;;;;;;;0.60;0.60;;;;;;;;;;4974923;28;87033;-59
2023/03/20 05:31:58;;;;;;;0.33;0.33;;;;;;;;;;4969170;28;91525;-58
2023/03/20 05:34:27;;;;;;;2.23;0.77;;;;;;;;;;4974905;28;91661;-58
2023/03/20 05:36:55;;;;;;;1.47;0.80;;;;;;;;;;4979443;28;87165;-60
2023/03/20 05:39:24;;;;;;;0.67;0.50;;;;;;;;;;4974300;28;88595;-59
2023/03/20 05:41:52;;;;;;;0.60;0.60;;;;;;;;;;4979174;28;89102;-60
2023/03/20 05:44:23;;;;;;;1.90;0.70;;;;;;;;;;4981657;28;87934;-59
2023/03/20 05:46:51;;;;;;;2.87;0.93;;;;;;;;;;4983170;28;86945;-59
2023/03/20 05:49:20;;;;;;;1.30;0.93;;;;;;;;;;4982465;28;86497;-58
2023/03/20 05:51:48;;;;;;;1.33;0.90;;;;;;;;;;4982291;28;87068;-59
2023/03/20 05:54:17;;;;;;;1.77;0.70;;;;;;;;;;4978392;28;87535;-59
2023/03/20 05:56:45;;;;;;;0.77;0.73;;;;;;;;;;4980537;28;88248;-59
2023/03/20 05:59:14;;;;;;;1.67;0.80;;;;;;;;;;4982979;28;87025;-59
2023/03/20 06:01:43;;;;;;;1.07;0.80;;;;;;;;;;4982269;28;89412;-59
2023/03/20 06:04:11;;;;;;;1.27;0.50;;;;;;;;;;4982441;28;88850;-59
2023/03/20 06:06:40;;;;;;;1.30;0.73;;;;;;;;;;4982598;28;87104;-59
2023/03/20 06:09:09;;;;;;;3.40;1.03;;;;;;;;;;4979101;28;87077;-59
2023/03/20 06:11:37;;;;;;;1.07;0.97;;;;;;;;;;4982133;28;88057;-59
2023/03/20 06:14:05;;;;;;;1.33;1.23;;;;;;;;;;4983015;28;88902;-59
2023/03/20 06:16:35;;;;;;;0.90;0.90;;;;;;;;;;4982848;28;86914;-59
2023/03/20 06:19:05;;;;;;;0.90;0.67;;;;;;;;;;4982271;28;87334;-59
2023/03/20 06:21:33;;;;;;;0.70;0.70;;;;;;;;;;4981805;28;89183;-59
2023/03/20 06:24:02;;;;;;;1.13;0.60;;;;;;;;;;4982431;28;89739;-58
2023/03/20 06:26:30;;;;;;;1.50;1.10;;;;;;;;;;4982690;28;86988;-59
2023/03/20 06:29:00;;;;;;;0.97;0.70;;;;;;;;;;4981921;28;87074;-58
2023/03/20 06:31:28;;;;;;;1.27;1.10;;;;;;;;;;4982325;28;89228;-58
2023/03/20 06:33:57;;;;;;;1.83;1.40;;;;;;;;;;4971889;28;88862;-59
2023/03/20 06:36:27;;;;;;;2.30;1.20;;;;;;;;;;4982179;28;87159;-59
2023/03/20 06:38:56;;;;;;;3.03;1.30;;;;;;;;;;4978504;28;87350;-59
2023/03/20 06:41:25;;;;;;;1.67;0.80;;;;;;;;;;4980026;28;87297;-58
2023/03/20 06:44:02;;;;;;;1.17;0.90;;;;;;;;;;4982011;28;89650;-59
2023/03/20 06:46:30;;;;;;;4.23;0.90;;;;;;;;;;4981655;28;87947;-59
2023/03/20 06:48:59;;;;;;;2.23;1.40;;;;;;;;;;4981967;28;87049;-59
2023/03/20 06:51:28;;;;;;;1.90;0.90;;;;;;;;;;4979063;28;90143;-59
2023/03/20 06:53:57;;;;;;;2.00;1.50;;;;;;;;;;4981292;28;88049;-59
2023/03/20 06:56:25;;;;;;;1.47;1.23;;;;;;;;;;4981906;28;86983;-59
2023/03/20 06:58:53;;;;;;;2.17;1.20;;;;;;;;;;4981771;28;87168;-59
2023/03/20 07:01:22;;;;;;;2.30;1.27;;;;;;;;;;4981686;28;89084;-59
2023/03/20 07:03:51;;;;;;;1.43;1.23;;;;;;;;;;4981493;28;87893;-59
2023/03/20 07:06:19;;;;;;;1.10;1.00;;;;;;;;;;4981537;28;86916;-59
2023/03/20 07:08:50;;;;;;;1.93;1.10;;;;;;;;;;4981703;28;87151;-58
2023/03/20 07:11:24;;;;;;;1.60;1.20;;;;;;;;;;4980709;28;88971;-59
2023/03/20 07:13:53;;;;;;;4.27;1.00;;;;;;;;;;4981639;28;87266;-59
2023/03/20 07:16:21;;;;;;;2.20;1.00;;;;;;;;;;4981847;28;87047;-59
2023/03/20 07:18:50;;;;;;;2.43;1.40;;;;;;;;;;4981666;28;87194;-58
2023/03/20 07:21:19;;;;;;;1.37;1.07;;;;;;;;;;4981034;28;89130;-59
2023/03/20 07:23:48;;;;;;;3.80;1.43;;;;;;;;;;4980987;28;87899;-59
2023/03/20 07:26:17;;;;;;;1.50;1.40;;;;;;;;;;4981552;28;87075;-58
2023/03/20 07:28:45;;;;;;;2.67;1.27;;;;;;;;;;4982125;28;86244;-59
2023/03/20 07:31:19;;;;;;;0.93;0.93;;;;;;;;;;4981108;28;87955;-58
2023/03/20 07:33:47;;;;;;;1.67;0.93;;;;;;;;;;4981162;28;89042;-59
2023/03/20 07:36:16;;;;;;;1.30;0.80;;;;;;;;;;4980914;28;88115;-58
2023/03/20 07:38:44;;;;;;;1.47;1.00;;;;;;;;;;4980430;28;87116;-58
2023/03/20 07:41:15;;;;;;;1.67;1.10;;;;;;;;;;4975468;28;89429;-59
2023/03/20 07:43:44;;;;;;;2.67;1.97;;;;;;;;;;4976799;28;87060;-59
2023/03/20 07:46:17;;;;;;;0.67;0.67;;;;;;;;;;4979621;28;87165;-58
2023/03/20 07:48:46;;;;;;;2.30;1.30;;;;;;;;;;4980906;28;87085;-58
2023/03/20 07:51:14;;;;;;;2.93;1.30;;;;;;;;;;4979008;28;89198;-61
2023/03/20 07:53:42;;;;;;;1.10;1.00;;;;;;;;;;4981318;28;88933;-61
2023/03/20 07:56:11;;;;;;;3.03;0.90;;;;;;;;;;4980968;28;87175;-60
2023/03/20 07:58:43;;;;;;;1.50;1.23;;;;;;;;;;4975113;28;87089;-60
2023/03/20 08:01:11;;;;;;;1.97;0.90;;;;;;;;;;4979713;28;90410;-62
2023/03/20 08:03:39;;;;;;;3.73;1.13;;;;;;;;;;4978222;28;90083;-59
2023/03/20 08:06:09;;;;;;;2.20;1.30;;;;;;;;;;4981000;28;87207;-60
2023/03/20 08:08:38;;;;;;;2.87;1.43;;;;;;;;;;4980955;28;87055;-62
2023/03/20 08:11:06;;;;;;;4.23;1.20;;;;;;;;;;4980465;28;89006;-60
2023/03/20 08:13:35;;;;;;;1.30;1.20;;;;;;;;;;4980129;28;87819;-61
2023/03/20 08:16:05;;;;;;;2.37;1.20;;;;;;;;;;4981153;28;86847;-61
2023/03/20 08:18:33;;;;;;;1.07;0.90;;;;;;;;;;4980695;28;86291;-60
2023/03/20 08:21:02;;;;;;;3.33;1.50;;;;;;;;;;4980276;28;89164;-60
2023/03/20 08:23:30;;;;;;;1.23;0.80;;;;;;;;;;4981768;28;88802;-60
2023/03/20 08:26:00;;;;;;;1.07;0.80;;;;;;;;;;4979305;28;87996;-61
2023/03/20 08:28:28;;;;;;;1.20;0.87;;;;;;;;;;4981744;28;87065;-62
2023/03/20 08:31:17;;;;;;;2.30;1.17;;;;;;;;;;4980947;28;88085;-59
2023/03/20 08:33:53;;;;;;;0.87;0.80;;;;;;;;;;4969947;28;88917;-60
2023/03/20 08:36:26;;;;;;;2.57;1.10;;;;;;;;;;4982426;28;87124;-54
2023/03/20 08:38:54;;;;;;;2.13;1.20;;;;;;;;;;4961181;28;87356;-57
2023/03/20 08:41:23;;;;;;;1.57;0.90;;;;;;;;;;4980509;28;88983;-57
2023/03/20 08:43:51;;;;;;;2.67;1.43;;;;;;;;;;4981368;28;88934;-56
2023/03/20 08:46:22;;;;;;;4.27;1.30;;;;;;;;;;4981512;28;87059;-57
2023/03/20 08:48:51;;;;;;;6.23;1.10;;;;;;;;;;4981742;28;87084;-57
2023/03/20 08:51:19;;;;;;;1.23;1.10;;;;;;;;;;4980926;28;88970;-57
2023/03/20 08:53:48;;;;;;;1.80;1.00;;;;;;;;;;4981430;28;89930;-57
2023/03/20 08:56:16;;;;;;;4.07;1.40;;;;;;;;;;4981984;28;87134;-57
2023/03/20 08:58:44;;;;;;;1.03;0.87;;;;;;;;;;4981319;28;87042;-57
2023/03/20 09:01:14;;;;;;;2.53;0.90;;;;;;;;;;4980906;28;89132;-57
2023/03/20 09:03:44;;;;;;;0.70;0.70;;;;;;;;;;4980489;28;87638;-57
2023/03/20 09:06:12;;;;;;;0.60;0.60;;;;;;;;;;4981472;28;87073;-57
2023/03/20 09:08:40;;;;;;;1.80;1.07;;;;;;;;;;4982258;28;87466;-57
2023/03/20 09:11:09;;;;;;;0.70;0.70;;;;;;;;;;4981810;28;88235;-57
2023/03/20 09:13:37;;;;;;;1.80;1.07;;;;;;;;;;4962594;28;86868;-57
2023/03/20 09:16:06;;;;;;;0.90;0.73;;;;;;;;;;4961501;28;88120;-57
2023/03/20 09:18:34;;;;;;;1.97;0.70;;;;;;;;;;4963034;28;86809;-57
2023/03/20 09:21:04;;;;;;;3.13;1.03;;;;;;;;;;4964818;28;88950;-57
2023/03/20 09:23:33;;;;;;;1.73;0.77;;;;;;;;;;4966343;28;87781;-57
2023/03/20 09:26:02;;;;;;;7.23;1.47;;;;;;;;;;4984827;28;86916;-57
2023/03/20 09:28:31;;;;;;;2.50;0.80;;;;;;;;;;4984459;28;87123;-57
2023/03/20 09:30:59;;;;;;;1.07;1.00;;;;;;;;;;4983766;28;88139;-57
2023/03/20 09:33:29;;;;;;;1.53;0.70;;;;;;;;;;4984668;28;87724;-57
2023/03/20 09:35:57;;;;;;;1.17;0.90;;;;;;;;;;4985437;28;86893;-57
2023/03/20 09:38:28;;;;;;;0.93;0.87;;;;;;;;;;4973630;28;86939;-57
2023/03/20 09:40:56;;;;;;;0.90;0.60;;;;;;;;;;4964353;28;89828;-57
2023/03/20 09:43:30;;;;;;;0.53;0.53;;;;;;;;;;4966506;28;89782;-57
2023/03/20 09:46:00;;;;;;;0.73;0.73;;;;;;;;;;4983327;28;87100;-57
2023/03/20 09:48:29;;;;;;;0.70;0.50;;;;;;;;;;4984743;28;87090;-55
2023/03/20 09:50:59;;;;;;;1.43;0.67;;;;;;;;;;4984411;28;89258;-55
2023/03/20 09:53:30;;;;;;;0.40;0.40;;;;;;;;;;4980977;28;87225;-59
2023/03/20 09:55:58;;;;;;;0.83;0.63;;;;;;;;;;4967145;28;87165;-59
2023/03/20 09:58:27;;;;;;;1.43;0.83;;;;;;;;;;4984445;28;86400;-55
2023/03/20 10:00:56;;;;;;;1.07;1.00;;;;;;;;;;4983791;28;88319;-55
2023/03/20 10:03:25;;;;;;;0.70;0.60;;;;;;;;;;4983575;28;87847;-55
2023/03/20 10:05:55;;;;;;;0.50;0.50;;;;;;;;;;4983830;28;87916;-56
2023/03/20 10:08:26;;;;;;;0.73;0.50;;;;;;;;;;4983776;28;87055;-56
2023/03/20 10:10:58;;;;;;;1.63;1.10;;;;;;;;;;4984279;28;89378;-55
2023/03/20 10:13:32;;;;;;;1.80;0.80;;;;;;;;;;4983506;28;88969;-55
2023/03/20 10:16:04;;;;;;;4.00;0.67;;;;;;;;;;4983300;28;87164;-55
2023/03/20 10:18:34;;;;;;;0.70;0.70;;;;;;;;;;4983974;28;87069;-56
2023/03/20 10:21:04;;;;;;;1.83;0.53;;;;;;;;;;4982853;28;88203;-55
2023/03/20 10:23:34;;;;;;;0.67;0.67;;;;;;;;;;4983572;28;87523;-55
2023/03/20 10:26:06;;;;;;;1.13;0.83;;;;;;;;;;4983641;28;87708;-56
2023/03/20 10:28:35;;;;;;;1.37;0.60;;;;;;;;;;4983186;28;87117;-55
2023/03/20 10:31:11;;;;;;;0.80;0.80;;;;;;;;;;4981644;28;89222;-55
2023/03/20 10:33:43;;;;;;;0.60;0.60;;;;;;;;;;4982890;28;89945;-54
2023/03/20 10:36:15;;;;;;;1.47;0.93;;;;;;;;;;4983094;28;87168;-55
2023/03/20 10:38:45;;;;;;;1.07;0.80;;;;;;;;;;4983759;28;87082;-55
2023/03/20 10:41:15;;;;;;;0.93;0.63;;;;;;;;;;4983559;28;89071;-56
2023/03/20 10:43:44;;;;;;;2.50;1.00;;;;;;;;;;4983260;28;88023;-56
2023/03/20 10:46:13;;;;;;;1.33;1.17;;;;;;;;;;4983509;28;87112;-56
2023/03/20 10:48:43;;;;;;;1.97;1.00;;;;;;;;;;4983373;28;86408;-55
2023/03/20 10:51:14;;;;;;;2.57;1.37;;;;;;;;;;4982849;28;88580;-55
2023/03/20 10:53:43;;;;;;;1.77;1.07;;;;;;;;;;4983309;28;87057;-55
2023/03/20 10:56:13;;;;;;;1.17;0.90;;;;;;;;;;4981941;28;87972;-55
2023/03/20 10:58:46;;;;;;;0.73;0.73;;;;;;;;;;4982978;28;87019;-55
2023/03/20 11:01:14;;;;;;;4.03;1.07;;;;;;;;;;4982625;28;89362;-56
2023/03/20 11:03:43;;;;;;;1.17;0.77;;;;;;;;;;4982090;28;88708;-56
2023/03/20 11:06:15;;;;;;;2.37;1.07;;;;;;;;;;4982665;28;87038;-55
2023/03/20 11:08:43;;;;;;;3.97;1.00;;;;;;;;;;4982492;28;87095;-55
2023/03/20 11:11:12;;;;;;;1.13;1.03;;;;;;;;;;4983033;28;88051;-55
2023/03/20 11:13:41;;;;;;;2.00;0.90;;;;;;;;;;4983207;28;88971;-56
2023/03/20 11:16:15;;;;;;;6.00;1.33;;;;;;;;;;4966476;28;87178;-55
2023/03/20 11:18:45;;;;;;;1.33;1.10;;;;;;;;;;4982383;28;87133;-56
2023/03/20 11:21:21;;;;;;;1.93;0.93;;;;;;;;;;4981029;28;88847;-55
2023/03/20 11:23:50;;;;;;;0.97;0.87;;;;;;;;;;4982676;28;87500;-55
2023/03/20 11:26:18;;;;;;;2.27;1.10;;;;;;;;;;4982158;28;86784;-55
2023/03/20 11:28:51;;;;;;;1.40;0.90;;;;;;;;;;4983321;28;87002;-57
2023/03/20 11:31:22;;;;;;;1.20;1.10;;;;;;;;;;4972791;28;86919;-56
2023/03/20 11:33:53;;;;;;;2.63;1.33;;;;;;;;;;4962278;28;87988;-55
2023/03/20 11:36:23;;;;;;;1.60;1.30;;;;;;;;;;4963571;28;86795;-55
2023/03/20 11:38:55;;;;;;;2.77;1.20;;;;;;;;;;4964165;28;86267;-55
2023/03/20 11:41:24;;;;;;;2.73;0.97;;;;;;;;;;4964960;28;88106;-55
2023/03/20 11:43:55;;;;;;;0.67;0.67;;;;;;;;;;4981957;28;87787;-55
2023/03/20 11:46:25;;;;;;;0.80;0.57;;;;;;;;;;4981497;28;87867;-55
2023/03/20 11:49:04;;;;;;;1.70;1.17;;;;;;;;;;4981843;28;87037;-55
2023/03/20 11:51:35;;;;;;;1.43;0.80;;;;;;;;;;4982562;28;89311;-55
2023/03/20 11:54:03;;;;;;;3.73;1.17;;;;;;;;;;4982311;28;87647;-56
2023/03/20 11:56:32;;;;;;;2.20;1.00;;;;;;;;;;4983052;28;86889;-55
2023/03/20 11:59:02;;;;;;;1.13;0.80;;;;;;;;;;4981691;28;87038;-55
2023/03/20 12:01:39;;;;;;;1.80;1.03;;;;;;;;;;4980274;28;88312;-56
2023/03/20 12:04:08;;;;;;;1.07;0.90;;;;;;;;;;4976600;28;88828;-56
2023/03/20 12:06:41;;;;;;;1.47;1.30;;;;;;;;;;4980526;28;87304;-56
2023/03/20 12:09:11;;;;;;;0.47;0.47;;;;;;;;;;4961726;28;87416;-56
2023/03/20 12:11:43;;;;;;;2.17;0.90;;;;;;;;;;4962913;28;89015;-56
2023/03/20 12:14:15;;;;;;;2.47;0.90;;;;;;;;;;4979932;28;88179;-55
2023/03/20 12:16:45;;;;;;;2.87;1.30;;;;;;;;;;4979871;28;87075;-55
2023/03/20 12:19:16;;;;;;;1.17;0.97;;;;;;;;;;4980409;28;86991;-55
2023/03/20 12:21:45;;;;;;;3.40;0.73;;;;;;;;;;4986933;28;89439;-55
2023/03/20 12:24:16;;;;;;;0.50;0.50;;;;;;;;;;4972446;28;88838;-56
2023/03/20 12:26:45;;;;;;;1.60;0.80;;;;;;;;;;4981101;28;87107;-55
2023/03/20 12:29:16;;;;;;;1.07;0.80;;;;;;;;;;4981560;28;86252;-55
2023/03/20 12:31:47;;;;;;;0.67;0.63;;;;;;;;;;4980605;28;87910;-56
2023/03/20 12:34:17;;;;;;;1.40;0.67;;;;;;;;;;4980692;28;87806;-55
2023/03/20 12:36:46;;;;;;;3.80;0.93;;;;;;;;;;4980663;28;88006;-55
2023/03/20 12:39:15;;;;;;;1.83;1.00;;;;;;;;;;4978190;28;87753;-55
2023/03/20 12:41:48;;;;;;;4.07;0.90;;;;;;;;;;4979552;28;89201;-55
2023/03/20 12:44:18;;;;;;;0.60;0.60;;;;;;;;;;4980407;28;87813;-55
2023/03/20 12:46:49;;;;;;;0.83;0.80;;;;;;;;;;4981508;28;87699;-55
2023/03/20 12:49:20;;;;;;;2.53;0.90;;;;;;;;;;4980411;28;87027;-55
2023/03/20 12:51:52;;;;;;;2.43;0.93;;;;;;;;;;4980302;28;88137;-55
2023/03/20 12:54:24;;;;;;;0.70;0.70;;;;;;;;;;4979503;28;87857;-55
2023/03/20 12:56:55;;;;;;;2.87;1.00;;;;;;;;;;4981104;28;87127;-56
2023/03/20 12:59:25;;;;;;;2.40;1.37;;;;;;;;;;4968476;28;87039;-56
2023/03/20 13:01:56;;;;;;;3.20;1.23;;;;;;;;;;4965390;28;88032;-55
2023/03/20 13:04:32;;;;;;;1.63;0.60;;;;;;;;;;4980707;28;88867;-56
2023/03/20 13:07:01;;;;;;;1.53;0.80;;;;;;;;;;4981226;28;87073;-55
2023/03/20 13:09:46;;;;;;;2.60;0.70;;;;;;;;;;4981222;28;87081;-55
2023/03/20 13:12:18;;;;;;;0.50;0.43;;;;;;;;;;4980614;28;89008;-56
2023/03/20 13:14:48;;;;;;;1.17;1.00;;;;;;;;;;4979906;28;87958;-55
2023/03/20 13:17:19;;;;;;;4.13;0.93;;;;;;;;;;4980513;28;87171;-55
2023/03/20 13:19:49;;;;;;;2.63;0.80;;;;;;;;;;4970288;28;86354;-55
2023/03/20 13:22:18;;;;;;;0.50;0.50;;;;;;;;;;4960109;28;87940;-55
2023/03/20 13:24:47;;;;;;;1.33;0.70;;;;;;;;;;4960406;28;87638;-55
2023/03/20 13:27:18;;;;;;;1.43;0.43;;;;;;;;;;4960409;28;87884;-55
2023/03/20 13:29:48;;;;;;;2.97;0.70;;;;;;;;;;4960821;28;87091;-56
2023/03/20 13:32:21;;;;;;;1.50;0.60;;;;;;;;;;4972830;28;87938;-55
2023/03/20 13:35:02;;;;;;;1.73;0.60;;;;;;;;;;4981257;28;88134;-56
2023/03/20 13:37:34;;;;;;;2.67;0.90;;;;;;;;;;5000779;28;87054;-56
2023/03/20 13:40:06;;;;;;;2.00;0.83;;;;;;;;;;5000151;28;87066;-55
2023/03/20 13:42:36;;;;;;;0.40;0.40;;;;;;;;;;4999452;28;88064;-55
2023/03/20 13:45:05;;;;;;;0.83;0.83;;;;;;;;;;4999679;28;87840;-56
2023/03/20 13:47:36;;;;;;;1.43;0.53;;;;;;;;;;4982449;28;87122;-55
2023/03/20 13:50:08;;;;;;;1.43;0.67;;;;;;;;;;5000396;28;86991;-55
2023/03/20 13:52:38;;;;;;;1.20;0.97;;;;;;;;;;4999508;28;89148;-56
2023/03/20 13:55:15;;;;;;;2.07;0.90;;;;;;;;;;4995558;28;87603;-55
2023/03/20 13:57:54;;;;;;;0.93;0.83;;;;;;;;;;4980716;28;87054;-55
2023/03/20 14:00:25;;;;;;;1.53;0.60;;;;;;;;;;4979471;28;87185;-55
2023/03/20 14:03:08;;;;;;;1.53;0.70;;;;;;;;;;4979580;28;88844;-51
2023/03/20 14:05:36;;;;;;;1.10;0.80;;;;;;;;;;4982813;28;88839;-53
2023/03/20 14:08:20;;;;;;;6.27;1.00;;;;;;;;;;4983023;28;87244;-51
2023/03/20 14:10:48;;;;;;;3.33;0.87;;;;;;;;;;4977280;28;87377;-52
2023/03/20 14:13:17;;;;;;;1.13;0.70;;;;;;;;;;4983061;28;88142;-52
2023/03/20 14:15:48;;;;;;;2.53;0.80;;;;;;;;;;4978147;28;87731;-50
2023/03/20 14:18:18;;;;;;;3.80;0.90;;;;;;;;;;4962591;28;88268;-50
2023/03/20 14:20:51;;;;;;;1.53;0.63;;;;;;;;;;4977855;28;87774;-50
2023/03/20 14:23:20;;;;;;;4.13;1.40;;;;;;;;;;4982574;28;89117;-50
2023/03/20 14:25:50;;;;;;;2.30;1.07;;;;;;;;;;4982302;28;87043;-51
2023/03/20 14:28:26;;;;;;;4.37;1.03;;;;;;;;;;4979596;28;87734;-51
2023/03/20 14:31:11;;;;;;;3.20;0.80;;;;;;;;;;4982160;28;87053;-50
2023/03/20 14:33:44;;;;;;;3.60;1.30;;;;;;;;;;4982409;28;88213;-50
2023/03/20 14:36:19;;;;;;;2.70;1.27;;;;;;;;;;4982647;28;88815;-50
2023/03/20 14:38:50;;;;;;;3.33;1.10;;;;;;;;;;4982699;28;87117;-52
2023/03/20 14:41:24;;;;;;;3.43;0.67;;;;;;;;;;4975750;28;87065;-50
2023/03/20 14:43:57;;;;;;;1.03;0.63;;;;;;;;;;4978640;28;90139;-50
2023/03/20 14:46:28;;;;;;;4.37;1.10;;;;;;;;;;4980252;28;88740;-50
2023/03/20 14:48:58;;;;;;;2.67;0.83;;;;;;;;;;4982947;28;87109;-52
2023/03/20 14:51:32;;;;;;;1.90;0.80;;;;;;;;;;4981515;28;87141;-50
2023/03/20 14:54:15;;;;;;;2.43;0.80;;;;;;;;;;4982383;28;89028;-52
2023/03/20 14:56:45;;;;;;;1.47;0.63;;;;;;;;;;4963502;28;87869;-52
2023/03/20 14:59:14;;;;;;;0.70;0.60;;;;;;;;;;4974326;28;87121;-52
2023/03/20 15:01:45;;;;;;;2.40;0.53;;;;;;;;;;4980466;28;88020;-52